China Lake Nwc, California
Current Conditions -  °F | °C
As of 7:56 PM on Tuesday 25 Nov 2014 (Local Time) from KNID Reporting Station
Clear Clear  
Wind Chill: 43°   Ceiling: Unl
Heat Index: 47°   Visibility: 10mi
Dew Point:   Wind: 8mph
Humidity: 19%   Direction: 200°SSW
Pressure: 30.39"   Gusts: NA
Location:  35.7401°N, 117.453°W
Report Text: KNID 260356Z 20007KT 10SM CLR 08/M14 A3039 RMK AO2 SLP299 T00831144 $
Loading
Personal Weather Stations






























Interactive Weather Map New forecast layout! Learn more

10-Day Weather Forecast

Advertisements
Track Severe Weather on mobile